ePrivacy and GPDR Cookie Consent by Cookie Consent
EmailTwitter


Observations de surface / États-Unis / KJFK (74486)

Régions: Québec | Canada | États-Unis | Europe | France | UK | Ailleurs
Station
Affichage
Infos & localisation pour KJFK (74486) | Aide pour décoder les METARs

Observations prises le 2023-02-09 à 04H51 UTC à NEW YORK/JF KENN, NY (KJFK)

Etat du ciel: ciel variable.

Température: 2.8 Celsius

Point de rosée: -0.6 Celsius

Humidité relative: 78%

Facteur vent -1.

Vents: Sud-ouest à 13 km/h ou 7 noeuds.

Pression au niveau moyen de la mer: 102.67 kilopascals.

Calage altimétrique: 102.67 kilopascals ou 30.32 pouces de mercure.

Visibilité horizontale: 10.00 milles terrestres ou 16.00 kilomètres.

Observation METAR:

KJFK 090451Z 24007KT 10SM SCT250 03/M01 A3032 RMK AO2 SLP267 T00281006

401220011 $=